PWSweather.com
Personal Weather Stations
Station Observations
FM1HN
Gros MorneMQ 97213

Gros MorneMQ 97213

Lat: 14.7107851, Lon: -61.003055399999994

Elevation: 0

Station Type:

Latest ConditionsUpdated 9:00:01 AM GMT-04:56 Wednesday, Jun 26, 2019
Currently Today's Max Today's Min Today's Average
Temperature 81.7°F27.6°C 81.7°F27.6°C 79.0°F26.1°C 79.8°F26.6°C
Dew Point 79.8°F26.6°C 79.8°F26.6°C 77.1°F25.1°C 78.3°F25.7°C
Winds Calm Calm 3.5 mph -5.6 kmh - - 0.4 mph 0.6 kmh
Wind Gusts -- 10.4 mph16.7 kmh - -
Humidity 94% 97% 91% 95%
Pressure 30.06 in1017.9 mb 30.06 in1017.9 mb 29.99 in1015.6 mb -
Hour Temp Dew Point Humidity Winds Wind Gusts Pressure Precip Precip Rate Daily Precip Total
09:00 AM 81.7°F27.6°C 79.8°F26.6°C 94% Calm Calm -- 30.06 in1017.9 mb - 0.00 in0.0 mm 0.00 in0.0 mm
08:55 AM 81.7°F27.6°C 79.8°F26.6°C 94% Calm Calm -- 30.06 in1017.9 mb - 0.00 in0.0 mm 0.00 in0.0 mm
08:50 AM 81.7°F27.6°C 79.8°F26.6°C 94% Calm Calm -- 30.06 in1017.9 mb - 0.00 in0.0 mm 0.00 in0.0 mm
08:45 AM 81.7°F27.6°C 79.8°F26.6°C 94% Calm Calm -- 30.06 in1017.9 mb - 0.00 in0.0 mm 0.00 in0.0 mm
08:40 AM 81.7°F27.6°C 79.8°F26.6°C 94% Calm Calm -- 30.06 in1017.9 mb - 0.00 in0.0 mm 0.00 in0.0 mm
08:35 AM 81.7°F27.6°C 79.8°F26.6°C 94% Calm Calm -- 30.06 in1017.9 mb - 0.00 in0.0 mm 0.00 in0.0 mm
08:30 AM 81.7°F27.6°C 79.8°F26.6°C 94% Calm Calm -- 30.06 in1017.9 mb - 0.00 in0.0 mm 0.00 in0.0 mm
08:25 AM 81.7°F27.6°C 79.8°F26.6°C 94% Calm Calm -- 30.06 in1017.9 mb - 0.00 in0.0 mm 0.00 in0.0 mm
08:20 AM 81.7°F27.6°C 79.8°F26.6°C 94% Calm Calm -- 30.06 in1017.9 mb - 0.00 in0.0 mm 0.00 in0.0 mm
08:15 AM 81.7°F27.6°C 79.8°F26.6°C 94% Calm Calm -- 30.06 in1017.9 mb - 0.00 in0.0 mm 0.00 in0.0 mm
08:10 AM 81.5°F27.5°C 78.6°F25.9°C 91% Calm Calm -- 30.05 in1017.6 mb - 0.00 in0.0 mm 0.00 in0.0 mm
08:00 AM 81.5°F27.5°C 78.6°F25.9°C 91% 1.2 mph SE1.9 kmh SE 4.6 mph7.4 kmh 30.05 in1017.6 mb - 0.00 in0.0 mm 0.00 in0.0 mm
07:55 AM 81.5°F27.5°C 78.6°F25.9°C 91% Calm Calm 2.3 mph3.7 kmh 30.05 in1017.6 mb - 0.00 in0.0 mm 0.00 in0.0 mm
07:50 AM 81.5°F27.5°C 78.6°F25.9°C 91% 1.2 mph SE1.9 kmh SE 2.3 mph3.7 kmh 30.05 in1017.6 mb - 0.00 in0.0 mm 0.00 in0.0 mm
07:45 AM 81.3°F27.4°C 78.8°F26.0°C 92% Calm Calm 2.3 mph3.7 kmh 30.05 in1017.6 mb - 0.00 in0.0 mm 0.00 in0.0 mm
07:40 AM 81.3°F27.4°C 78.4°F25.8°C 91% Calm Calm 2.3 mph3.7 kmh 30.05 in1017.6 mb - 0.00 in0.0 mm 0.00 in0.0 mm
07:35 AM 81.3°F27.4°C 78.4°F25.8°C 91% 1.2 mph E1.9 kmh E 4.6 mph7.4 kmh 30.05 in1017.6 mb - 0.00 in0.0 mm 0.00 in0.0 mm
07:30 AM 81.3°F27.4°C 78.8°F26.0°C 92% 1.2 mph NNE1.9 kmh NNE 2.3 mph3.7 kmh 30.04 in1017.3 mb - 0.00 in0.0 mm 0.00 in0.0 mm
07:25 AM 81.1°F27.3°C 78.9°F26.1°C 93% 2.3 mph NE3.7 kmh NE 6.9 mph11.1 kmh 30.05 in1017.6 mb - 0.00 in0.0 mm 0.00 in0.0 mm
07:20 AM 81.1°F27.3°C 78.9°F26.1°C 93% Calm Calm -- 30.05 in1017.6 mb - 0.00 in0.0 mm 0.00 in0.0 mm
07:15 AM 81.0°F27.2°C 79.1°F26.2°C 94% Calm Calm -- 30.04 in1017.3 mb - 0.00 in0.0 mm 0.00 in0.0 mm
07:10 AM 81.0°F27.2°C 79.1°F26.2°C 94% Calm Calm -- 30.04 in1017.3 mb - 0.00 in0.0 mm 0.00 in0.0 mm
07:00 AM 81.0°F27.2°C 79.1°F26.2°C 94% 1.2 mph E1.9 kmh E 4.6 mph7.4 kmh 30.04 in1017.3 mb - 0.00 in0.0 mm 0.00 in0.0 mm
06:55 AM 80.8°F27.1°C 78.9°F26.1°C 94% Calm Calm -- 30.04 in1017.3 mb - 0.00 in0.0 mm 0.00 in0.0 mm
06:50 AM 80.8°F27.1°C 78.9°F26.1°C 94% Calm Calm 4.6 mph7.4 kmh 30.04 in1017.3 mb - 0.00 in0.0 mm 0.00 in0.0 mm
06:45 AM 80.8°F27.1°C 78.9°F26.1°C 94% Calm Calm 2.3 mph3.7 kmh 30.04 in1017.3 mb - 0.00 in0.0 mm 0.00 in0.0 mm
06:40 AM 80.6°F27.0°C 78.7°F25.9°C 94% Calm Calm 2.3 mph3.7 kmh 30.04 in1017.3 mb - 0.00 in0.0 mm 0.00 in0.0 mm
06:35 AM 80.6°F27.0°C 79.0°F26.1°C 95% Calm Calm 2.3 mph3.7 kmh 30.04 in1017.3 mb - 0.00 in0.0 mm 0.00 in0.0 mm
06:30 AM 80.5°F26.9°C 78.9°F26.1°C 95% Calm Calm -- 30.04 in1017.3 mb - 0.00 in0.0 mm 0.00 in0.0 mm
06:25 AM 80.4°F26.9°C 78.9°F26.1°C 95% Calm Calm -- 30.04 in1017.3 mb - 0.00 in0.0 mm 0.00 in0.0 mm
06:20 AM 80.4°F26.9°C 78.8°F26.0°C 95% Calm Calm 2.3 mph3.7 kmh 30.04 in1017.3 mb - 0.00 in0.0 mm 0.00 in0.0 mm
06:15 AM 80.2°F26.8°C 79.0°F26.1°C 96% 1.2 mph E1.9 kmh E 4.6 mph7.4 kmh 30.03 in1016.9 mb - 0.00 in0.0 mm 0.00 in0.0 mm
06:10 AM 80.1°F26.7°C 78.8°F26.0°C 96% Calm Calm 2.3 mph3.7 kmh 30.03 in1016.9 mb - 0.00 in0.0 mm 0.00 in0.0 mm
06:00 AM 79.7°F26.5°C 78.8°F26.0°C 97% 1.2 mph NE1.9 kmh NE 4.6 mph7.4 kmh 30.02 in1016.6 mb - 0.00 in0.0 mm 0.00 in0.0 mm
05:55 AM 79.5°F26.4°C 78.6°F25.9°C 97% Calm Calm 2.3 mph3.7 kmh 30.03 in1016.9 mb - 0.00 in0.0 mm 0.00 in0.0 mm
05:50 AM 79.2°F26.2°C 78.3°F25.7°C 97% Calm Calm 2.3 mph3.7 kmh 30.02 in1016.6 mb - 0.00 in0.0 mm 0.00 in0.0 mm
05:45 AM 79.2°F26.2°C 78.2°F25.7°C 97% Calm Calm 2.3 mph3.7 kmh 30.03 in1016.9 mb - 0.00 in0.0 mm 0.00 in0.0 mm
05:40 AM 79.2°F26.2°C 78.2°F25.7°C 97% 1.2 mph SE1.9 kmh SE 4.6 mph7.4 kmh 30.02 in1016.6 mb - 0.00 in0.0 mm 0.00 in0.0 mm
05:35 AM 79.0°F26.1°C 78.1°F25.6°C 97% Calm Calm -- 30.02 in1016.6 mb - 0.00 in0.0 mm 0.00 in0.0 mm
05:30 AM 79.2°F26.2°C 78.2°F25.7°C 97% Calm Calm -- 30.02 in1016.6 mb - 0.00 in0.0 mm 0.00 in0.0 mm
05:25 AM 79.2°F26.2°C 78.2°F25.7°C 97% Calm Calm -- 30.02 in1016.6 mb - 0.00 in0.0 mm 0.00 in0.0 mm
05:20 AM 79.2°F26.2°C 78.2°F25.7°C 97% Calm Calm -- 30.02 in1016.6 mb - 0.00 in0.0 mm 0.00 in0.0 mm
05:15 AM 79.2°F26.2°C 78.2°F25.7°C 97% Calm Calm -- 30.02 in1016.6 mb - 0.00 in0.0 mm 0.00 in0.0 mm
05:10 AM 79.2°F26.2°C 77.9°F25.5°C 96% Calm Calm -- 30.02 in1016.6 mb - 0.00 in0.0 mm 0.00 in0.0 mm
05:00 AM 79.2°F26.2°C 77.9°F25.5°C 96% Calm Calm -- 30.01 in1016.3 mb - 0.00 in0.0 mm 0.00 in0.0 mm
04:55 AM 79.2°F26.2°C 77.9°F25.5°C 96% Calm Calm -- 30.01 in1016.3 mb - 0.00 in0.0 mm 0.00 in0.0 mm
04:50 AM 79.2°F26.2°C 77.9°F25.5°C 96% Calm Calm -- 30.01 in1016.3 mb - 0.00 in0.0 mm 0.00 in0.0 mm
04:45 AM 79.2°F26.2°C 77.9°F25.5°C 96% Calm Calm -- 30.01 in1016.3 mb - 0.00 in0.0 mm 0.00 in0.0 mm
04:40 AM 79.2°F26.2°C 77.9°F25.5°C 96% Calm Calm -- 30.02 in1016.6 mb - 0.00 in0.0 mm 0.00 in0.0 mm
04:35 AM 79.2°F26.2°C 77.9°F25.5°C 96% Calm Calm -- 30.01 in1016.3 mb - 0.00 in0.0 mm 0.00 in0.0 mm
04:30 AM 79.2°F26.2°C 77.9°F25.5°C 96% Calm Calm -- 30.01 in1016.3 mb - 0.00 in0.0 mm 0.00 in0.0 mm
04:25 AM 79.2°F26.2°C 77.9°F25.5°C 96% Calm Calm 2.3 mph3.7 kmh 30.01 in1016.3 mb - 0.00 in0.0 mm 0.00 in0.0 mm
04:20 AM 79.2°F26.2°C 77.9°F25.5°C 96% Calm Calm 2.3 mph3.7 kmh 30.00 in1015.9 mb - 0.00 in0.0 mm 0.00 in0.0 mm
04:15 AM 79.2°F26.2°C 77.9°F25.5°C 96% Calm Calm -- 30.01 in1016.3 mb - 0.00 in0.0 mm 0.00 in0.0 mm
04:10 AM 79.2°F26.2°C 77.9°F25.5°C 96% Calm Calm 2.3 mph3.7 kmh 30.01 in1016.3 mb - 0.00 in0.0 mm 0.00 in0.0 mm
04:00 AM 79.2°F26.2°C 77.9°F25.5°C 96% 1.2 mph NE1.9 kmh NE 6.9 mph11.1 kmh 30.01 in1016.3 mb - 0.00 in0.0 mm 0.00 in0.0 mm
03:55 AM 79.2°F26.2°C 77.9°F25.5°C 96% 1.2 mph E1.9 kmh E 2.3 mph3.7 kmh 30.00 in1015.9 mb - 0.00 in0.0 mm 0.00 in0.0 mm
03:50 AM 79.2°F26.2°C 77.9°F25.5°C 96% Calm Calm -- 30.01 in1016.3 mb - 0.00 in0.0 mm 0.00 in0.0 mm
03:45 AM 79.2°F26.2°C 77.9°F25.5°C 96% Calm Calm -- 30.01 in1016.3 mb - 0.00 in0.0 mm 0.00 in0.0 mm
03:40 AM 79.2°F26.2°C 77.9°F25.5°C 96% Calm Calm 2.3 mph3.7 kmh 30.00 in1015.9 mb - 0.00 in0.0 mm 0.00 in0.0 mm
03:35 AM 79.2°F26.2°C 77.9°F25.5°C 96% Calm Calm 2.3 mph3.7 kmh 30.00 in1015.9 mb - 0.00 in0.0 mm 0.00 in0.0 mm
03:30 AM 79.2°F26.2°C 77.9°F25.5°C 96% 2.3 mph E3.7 kmh E 4.6 mph7.4 kmh 30.00 in1015.9 mb - 0.00 in0.0 mm 0.00 in0.0 mm
03:25 AM 79.2°F26.2°C 77.9°F25.5°C 96% Calm Calm 2.3 mph3.7 kmh 30.00 in1015.9 mb - 0.00 in0.0 mm 0.00 in0.0 mm
03:20 AM 79.2°F26.2°C 77.9°F25.5°C 96% Calm Calm 2.3 mph3.7 kmh 30.00 in1015.9 mb - 0.00 in0.0 mm 0.00 in0.0 mm
03:15 AM 79.2°F26.2°C 77.9°F25.5°C 96% Calm Calm -- 30.00 in1015.9 mb - 0.00 in0.0 mm 0.00 in0.0 mm
03:10 AM 79.2°F26.2°C 77.9°F25.5°C 96% Calm Calm 2.3 mph3.7 kmh 30.00 in1015.9 mb - 0.00 in0.0 mm 0.00 in0.0 mm
03:00 AM 79.2°F26.2°C 77.9°F25.5°C 96% Calm Calm 2.3 mph3.7 kmh 30.00 in1015.9 mb - 0.00 in0.0 mm 0.00 in0.0 mm
02:55 AM 79.2°F26.2°C 77.9°F25.5°C 96% Calm Calm -- 30.00 in1015.9 mb - 0.00 in0.0 mm 0.00 in0.0 mm
02:50 AM 79.2°F26.2°C 77.9°F25.5°C 96% Calm Calm -- 30.00 in1015.9 mb - 0.00 in0.0 mm 0.00 in0.0 mm
02:45 AM 79.2°F26.2°C 77.9°F25.5°C 96% Calm Calm 2.3 mph3.7 kmh 30.00 in1015.9 mb - 0.00 in0.0 mm 0.00 in0.0 mm
02:40 AM 79.2°F26.2°C 77.9°F25.5°C 96% Calm Calm -- 29.99 in1015.6 mb - 0.00 in0.0 mm 0.00 in0.0 mm
02:35 AM 79.2°F26.2°C 77.9°F25.5°C 96% Calm Calm 2.3 mph3.7 kmh 30.00 in1015.9 mb - 0.00 in0.0 mm 0.00 in0.0 mm
02:30 AM 79.2°F26.2°C 77.9°F25.5°C 96% Calm Calm 2.3 mph3.7 kmh 30.00 in1015.9 mb - 0.00 in0.0 mm 0.00 in0.0 mm
02:25 AM 79.2°F26.2°C 77.9°F25.5°C 96% Calm Calm 2.3 mph3.7 kmh 30.00 in1015.9 mb - 0.00 in0.0 mm 0.00 in0.0 mm
02:20 AM 79.2°F26.2°C 77.9°F25.5°C 96% Calm Calm 2.3 mph3.7 kmh 29.99 in1015.6 mb - 0.00 in0.0 mm 0.00 in0.0 mm
02:15 AM 79.2°F26.2°C 77.6°F25.3°C 95% 1.2 mph NE1.9 kmh NE 4.6 mph7.4 kmh 30.00 in1015.9 mb - 0.00 in0.0 mm 0.00 in0.0 mm
02:10 AM 79.3°F26.3°C 77.8°F25.4°C 95% Calm Calm 2.3 mph3.7 kmh 30.00 in1015.9 mb - 0.00 in0.0 mm 0.00 in0.0 mm
02:00 AM 79.3°F26.3°C 77.8°F25.4°C 95% 1.2 mph ENE1.9 kmh ENE 4.6 mph7.4 kmh 30.00 in1015.9 mb - 0.00 in0.0 mm 0.00 in0.0 mm
01:55 AM 79.3°F26.3°C 77.8°F25.4°C 95% Calm Calm 2.3 mph3.7 kmh 30.00 in1015.9 mb - 0.00 in0.0 mm 0.00 in0.0 mm
01:50 AM 79.3°F26.3°C 77.8°F25.4°C 95% Calm Calm 2.3 mph3.7 kmh 30.00 in1015.9 mb - 0.00 in0.0 mm 0.00 in0.0 mm
01:45 AM 79.3°F26.3°C 77.8°F25.4°C 95% Calm Calm -- 30.00 in1015.9 mb - 0.00 in0.0 mm 0.00 in0.0 mm
01:40 AM 79.3°F26.3°C 77.8°F25.4°C 95% Calm Calm 2.3 mph3.7 kmh 30.00 in1015.9 mb - 0.00 in0.0 mm 0.00 in0.0 mm
01:35 AM 79.3°F26.3°C 77.8°F25.4°C 95% 1.2 mph ENE1.9 kmh ENE 4.6 mph7.4 kmh 30.00 in1015.9 mb - 0.00 in0.0 mm 0.00 in0.0 mm
01:30 AM 79.3°F26.3°C 77.8°F25.4°C 95% Calm Calm 2.3 mph3.7 kmh 30.00 in1015.9 mb - 0.00 in0.0 mm 0.00 in0.0 mm
01:25 AM 79.3°F26.3°C 77.8°F25.4°C 95% 3.5 mph E5.6 kmh E 10.4 mph16.7 kmh 30.00 in1015.9 mb - 0.00 in0.0 mm 0.00 in0.0 mm
01:20 AM 79.2°F26.2°C 77.6°F25.3°C 95% Calm Calm 2.3 mph3.7 kmh 30.00 in1015.9 mb - 0.00 in0.0 mm 0.00 in0.0 mm
01:15 AM 79.2°F26.2°C 77.6°F25.3°C 95% 2.3 mph ENE3.7 kmh ENE 4.6 mph7.4 kmh 30.01 in1016.3 mb - 0.00 in0.0 mm 0.00 in0.0 mm
01:10 AM 79.2°F26.2°C 77.6°F25.3°C 95% 2.3 mph E3.7 kmh E 4.6 mph7.4 kmh 30.01 in1016.3 mb - 0.00 in0.0 mm 0.00 in0.0 mm
01:00 AM 79.2°F26.2°C 77.6°F25.3°C 95% Calm Calm 2.3 mph3.7 kmh 30.01 in1016.3 mb - 0.00 in0.0 mm 0.00 in0.0 mm
12:55 AM 79.0°F26.1°C 77.4°F25.2°C 95% Calm Calm -- 30.01 in1016.3 mb - 0.00 in0.0 mm 0.00 in0.0 mm
12:50 AM 79.0°F26.1°C 77.4°F25.2°C 95% Calm Calm 2.3 mph3.7 kmh 30.02 in1016.6 mb - 0.00 in0.0 mm 0.00 in0.0 mm
12:45 AM 79.0°F26.1°C 77.4°F25.2°C 95% 1.2 mph E1.9 kmh E 2.3 mph3.7 kmh 30.01 in1016.3 mb - 0.00 in0.0 mm 0.00 in0.0 mm
12:40 AM 79.0°F26.1°C 77.4°F25.2°C 95% 1.2 mph ENE1.9 kmh ENE 2.3 mph3.7 kmh 30.02 in1016.6 mb - 0.00 in0.0 mm 0.00 in0.0 mm
12:35 AM 79.0°F26.1°C 77.4°F25.2°C 95% 1.2 mph E1.9 kmh E 2.3 mph3.7 kmh 30.02 in1016.6 mb - 0.00 in0.0 mm 0.00 in0.0 mm
12:30 AM 79.0°F26.1°C 77.1°F25.1°C 94% Calm Calm 4.6 mph7.4 kmh 30.03 in1016.9 mb - 0.00 in0.0 mm 0.00 in0.0 mm
12:25 AM 79.0°F26.1°C 77.1°F25.1°C 94% 1.2 mph E1.9 kmh E 2.3 mph3.7 kmh 30.02 in1016.6 mb - 0.00 in0.0 mm 0.00 in0.0 mm
12:20 AM 79.0°F26.1°C 77.1°F25.1°C 94% Calm Calm -- 30.02 in1016.6 mb - 0.00 in0.0 mm 0.00 in0.0 mm
12:15 AM 79.0°F26.1°C 77.4°F25.2°C 95% 1.2 mph ENE1.9 kmh ENE 4.6 mph7.4 kmh 30.03 in1016.9 mb - 0.00 in0.0 mm 0.00 in0.0 mm
12:10 AM 79.0°F26.1°C 77.4°F25.2°C 95% Calm Calm 4.6 mph7.4 kmh 30.02 in1016.6 mb - 0.00 in0.0 mm 0.00 in0.0 mm
12:00 AM 79.0°F26.1°C 77.4°F25.2°C 95% 1.2 mph ENE1.9 kmh ENE 2.3 mph3.7 kmh 30.03 in1016.9 mb - 0.00 in0.0 mm 0.00 in0.0 mm